Flight Track Log - Related Links

Times and Time Zones

All times are in EDT time to prevent confusion due to time zone crossing. See the RPA3143 flight status page for this flight to view local times or setup timezone preferences in your user account.

Time Position Orientation Groundspeed Altitude Reporting Facility
EDT Latitude Longitude Course Direction KTS MPH feet Rate Location/Type
Mon 08:06:52 AM 38.7833 -77.0333 233° Southwest 206 237 2,300  Level Potomac TRACON
Mon 08:07:52 AM 38.7167 -77.0667 201° Southwest 276 318 4,400 2,600 Climbing Potomac TRACON
Mon 08:08:00 AM 38.6319 -77.2848 218° Southwest  Level FlightAware Approximate
Mon 08:08:52 AM 38.6833 -77.1333 237° Southwest 268 308 7,500  Level Potomac TRACON
Mon 08:09:00 AM 38.5525 -77.3642 218° Southwest  Level FlightAware Approximate
Mon 08:09:52 AM 38.6333 -77.2167 232° Southwest 271 312 10,300  Level Potomac TRACON
Mon 08:10:00 AM 38.4795 -77.4526 225° Southwest  Level FlightAware Approximate
Mon 08:11:00 AM 38.4059 -77.5387 201° Southwest  Level FlightAware Approximate
Mon 08:11:16 AM 38.5633 -77.3147 228° Southwest 296 341 13,200  Level Washington Center
Mon 08:12:00 AM 38.3369 -77.6274 233° Southwest  Level FlightAware Approximate
Mon 08:12:17 AM 38.5100 -77.3986 231° Southwest 301 346 15,800  Level Washington Center
Mon 08:13:18 AM 38.4544 -77.4819 230° Southwest 306 352 18,000 2,132 Climbing Washington Center
Mon 08:14:18 AM 38.3947 -77.5706 229° Southwest 316 364 20,100 2,136 Climbing Washington Center
Mon 08:15:16 AM 38.3369 -77.6592 230° Southwest 326 375 22,200 1,983 Climbing Washington Center
Mon 08:16:16 AM 38.2769 -77.7525 231° Southwest 331 381 24,000 1,736 Climbing Washington Center
Mon 08:17:17 AM 38.2147 -77.8458 230° Southwest 342 394 25,700 1,574 Climbing Washington Center
Mon 08:18:18 AM 38.1544 -77.9444 232° Southwest 354 407 27,200 1,462 Climbing Washington Center
Mon 08:19:16 AM 38.0878 -78.0400 228° Southwest 360 414 28,600 1,322 Climbing Washington Center
Mon 08:20:16 AM 38.0253 -78.1356 230° Southwest 360 414 29,800 1,091 Climbing Washington Center
Mon 08:21:17 AM 37.9442 -78.2275 222° Southwest 360 414 30,800 992 Climbing Washington Center
Mon 08:22:17 AM 37.8611 -78.3036 216° Southwest 365 420 31,800 1,041 Climbing Washington Center
Mon 08:23:18 AM 37.7864 -78.3744 217° Southwest 370 426 32,900 942 Climbing Washington Center
Mon 08:24:18 AM 37.7033 -78.4528 217° Southwest 370 426 33,700 763 Climbing Washington Center
Mon 08:25:16 AM 37.6200 -78.5308 217° Southwest 370 426 34,400 661 Climbing Washington Center
Mon 08:26:16 AM 37.5389 -78.6089 217° Southwest 375 432 35,000 744 Climbing Washington Center
Mon 08:27:17 AM 37.4450 -78.6917 215° Southwest 375 432 35,900 496 Climbing Washington Center
Mon 08:28:17 AM 37.3617 -78.7692 216° Southwest 375 432 36,000 50 Climbing Washington Center
Mon 08:29:18 AM 37.2781 -78.8467 216° Southwest 375 432 36,000  Level Washington Center
Mon 08:30:18 AM 37.1947 -78.9239 216° Southwest 375 432 36,000  Level Washington Center
Mon 08:31:16 AM 37.1175 -78.9936 216° Southwest 375 432 36,000  Level Washington Center
Mon 08:32:17 AM 37.0319 -79.0731 217° Southwest 375 432 36,000  Level Washington Center
Mon 08:33:18 AM 36.9481 -79.1550 218° Southwest 375 432 36,000  Level Washington Center
Mon 08:34:18 AM 36.8622 -79.2314 215° Southwest 375 432 36,000  Level Washington Center
Mon 08:35:16 AM 36.7764 -79.3106 216° Southwest 380 437 36,000  Level Washington Center
Mon 08:36:17 AM 36.6819 -79.3992 217° Southwest 387 445 36,000  Level Washington Center
Mon 08:37:18 AM 36.5917 -79.4800 216° Southwest 393 452 36,000  Level Washington Center
Mon 08:39:33 AM 36.4011 -79.6511 216° Southwest 394 453 36,000  Level Atlanta Center
Mon 08:40:33 AM 36.3022 -79.7417 216° Southwest 399 459 36,000  Level Atlanta Center
Mon 08:41:33 AM 36.2131 -79.8208 216° Southwest 399 459 36,000  Level Atlanta Center
Mon 08:42:33 AM 36.1242 -79.9000 216° Southwest 399 459 36,000  Level Atlanta Center
Mon 08:43:33 AM 36.0347 -79.9767 215° Southwest 399 459 36,000  Level Atlanta Center
Mon 08:44:33 AM 35.9425 -80.0247 203° Southwest 394 453 36,000  Level Atlanta Center
Mon 08:45:33 AM 35.8422 -80.0783 203° Southwest 394 453 36,000  Level Atlanta Center
Mon 08:46:33 AM 35.7394 -80.1269 201° Southwest 394 453 36,000  Level Atlanta Center
Mon 08:47:33 AM 35.6267 -80.1886 204° Southwest 400 460 36,000  Level Atlanta Center
Mon 08:48:33 AM 35.5217 -80.2394 202° Southwest 405 466 36,000  Level Atlanta Center
Mon 08:49:33 AM 35.4192 -80.2925 203° Southwest 413 475 36,000  Level Atlanta Center
Mon 08:50:33 AM 35.3164 -80.3431 202° Southwest 408 470 36,000  Level Atlanta Center
Mon 08:51:33 AM 35.2094 -80.3961 202° Southwest 422 486 36,000  Level Atlanta Center
Mon 08:53:28 AM 35.0047 -80.4978 202° Southwest 412 474 36,000  Level Jacksonville Center
Mon 08:54:28 AM 34.8953 -80.5514 202° Southwest 412 474 36,000  Level Jacksonville Center
Mon 08:55:28 AM 34.8064 -80.5967 203° Southwest 412 474 36,000  Level Jacksonville Center
Mon 08:56:28 AM 34.7011 -80.6475 202° Southwest 407 468 36,000  Level Jacksonville Center
Mon 08:57:28 AM 34.5750 -80.7139 203° Southwest 430 495 36,000  Level Jacksonville Center
Mon 08:58:28 AM 34.4714 -80.7619 201° Southwest 425 489 36,000  Level Jacksonville Center
Mon 08:59:28 AM 34.3658 -80.8147 202° Southwest 414 476 36,000  Level Jacksonville Center
Mon 09:00:28 AM 34.2625 -80.8625 201° Southwest 403 464 36,000  Level Jacksonville Center
Mon 09:01:28 AM 34.1756 -80.9047 202° Southwest 394 453 36,000  Level Jacksonville Center
Mon 09:02:28 AM 34.0697 -80.9547 201° Southwest 394 453 36,000  Level Jacksonville Center
Mon 09:03:28 AM 33.9664 -81.0044 202° Southwest 399 459 36,000  Level Jacksonville Center
Mon 09:04:28 AM 33.8583 -81.0519 200° South 410 472 36,000  Level Jacksonville Center
Mon 09:05:28 AM 33.7419 -81.0694 187° South 410 472 36,000  Level Jacksonville Center
Mon 09:06:28 AM 33.6272 -81.0792 184° South 415 478 36,000  Level Jacksonville Center
Mon 09:07:28 AM 33.5083 -81.0867 183° South 420 483 36,000  Level Jacksonville Center
Mon 09:08:28 AM 33.3917 -81.0989 185° South 425 489 36,000  Level Jacksonville Center
Mon 09:09:28 AM 33.2728 -81.1089 184° South 425 489 36,000  Level Jacksonville Center
Mon 09:10:28 AM 33.1539 -81.1186 184° South 425 489 36,000  Level Jacksonville Center
Mon 09:11:28 AM 33.0228 -81.1286 184° South 425 489 36,000  Level Jacksonville Center
Mon 09:12:28 AM 32.9039 -81.1383 184° South 425 489 36,000  Level Jacksonville Center
Mon 09:13:28 AM 32.7828 -81.1481 184° South 425 489 36,000  Level Jacksonville Center
Mon 09:14:28 AM 32.6661 -81.1603 185° South 431 496 36,000  Level Jacksonville Center
Mon 09:15:28 AM 32.5597 -81.1697 184° South 426 490 36,000  Level Jacksonville Center
Mon 09:16:28 AM 32.4306 -81.1819 185° South 426 490 36,000  Level Jacksonville Center
Mon 09:17:28 AM 32.3075 -81.1892 183° South 441 507 36,000  Level Jacksonville Center
Mon 09:18:28 AM 32.1867 -81.1989 184° South 436 502 36,000  Level Jacksonville Center
Mon 09:19:28 AM 32.0633 -81.2011 181° South 441 507 36,000  Level Jacksonville Center
Mon 09:20:28 AM 31.9422 -81.1933 177° South 440 506 36,000  Level Jacksonville Center
Mon 09:21:28 AM 31.8231 -81.1883 178° South 440 506 36,000  Level Jacksonville Center
Mon 09:22:28 AM 31.7000 -81.1858 179° South 440 506 36,000  Level Jacksonville Center
Mon 09:23:28 AM 31.5914 -81.1803 178° South 440 506 36,000  Level Jacksonville Center
Mon 09:24:28 AM 31.4597 -81.1781 179° South 435 501 36,000  Level Jacksonville Center
Mon 09:25:28 AM 31.3469 -81.1775 180° South 446 513 36,000  Level Jacksonville Center
Mon 09:26:28 AM 31.2258 -81.1700 177° South 446 513 36,000  Level Jacksonville Center
Mon 09:27:28 AM 31.1025 -81.1700 180° South 441 507 36,000  Level Jacksonville Center
Mon 09:28:28 AM 30.9772 -81.1650 178° South 441 507 36,000  Level Jacksonville Center
Mon 09:29:28 AM 30.8561 -81.1600 178° South 441 507 36,000 -250 Level Jacksonville Center
Mon 09:30:28 AM 30.7350 -81.1572 179° South 441 507 35,500 -1,050 Descending Jacksonville Center
Mon 09:31:28 AM 30.6075 -81.1525 178° South 441 507 33,900 -1,400 Descending Jacksonville Center
Mon 09:32:28 AM 30.4822 -81.1497 179° South 441 507 32,700 -1,200 Descending Jacksonville Center
Mon 09:33:28 AM 30.3464 -81.1450 178° South 441 507 31,500 -1,150 Descending Jacksonville Center
Mon 09:34:28 AM 30.2231 -81.1425 179° South 447 514 30,400 -1,150 Descending Jacksonville Center
Mon 09:35:28 AM 30.1019 -81.1375 178° South 441 507 29,200 -1,200 Descending Jacksonville Center
Mon 09:36:28 AM 29.9850 -81.1325 178° South 435 501 28,000 -1,500 Descending Jacksonville Center
Mon 09:37:28 AM 29.8661 -81.1322 180° South 435 501 26,200 -1,750 Descending Jacksonville Center
Mon 09:38:28 AM 29.7553 -81.1294 179° South 421 484 24,500 -1,650 Descending Jacksonville Center
Mon 09:39:28 AM 29.6467 -81.1267 179° South 404 465 22,900 -1,500 Descending Jacksonville Center
Mon 09:40:28 AM 29.5444 -81.1236 179° South 391 450 21,500 -1,450 Descending Jacksonville Center
Mon 09:41:28 AM 29.4400 -81.1208 179° South 378 435 20,000 6,250 Descending Jacksonville Center
Mon 09:42:28 AM 29.3417 -81.1106 175° South 373 429 34,000 7,000 Climbing Jacksonville Center
Mon 09:43:28 AM 29.2417 -81.1125 181° South 362 417 34,000 -9,750 Level Jacksonville Center
Mon 09:44:28 AM 29.1456 -81.1000 174° South 362 417 14,500 -10,650 Descending Jacksonville Center
Mon 09:45:28 AM 29.0514 -81.0944 177° South 352 405 12,700 -1,350 Descending Jacksonville Center
Mon 09:46:28 AM 28.9636 -81.0867 176° South 338 389 11,800 -1,350 Descending Jacksonville Center
Mon 09:47:28 AM 28.8800 -81.0811 177° South 321 369 10,000 -1,811 Descending Jacksonville Center
Mon 09:48:14 AM 28.8167 -81.0667 169° South 296 341 8,600 -1,290 Descending Orlando TRACON
Mon 09:49:15 AM 28.7667 -81.1333 229° Southwest 244 281 7,700 -1,388 Descending Orlando TRACON
Mon 09:50:15 AM 28.7333 -81.2000 240° Southwest 249 287 5,800 -1,700 Descending Orlando TRACON
Mon 09:51:15 AM 28.7000 -81.2667 240° Southwest 233 268 4,300 -900 Descending Orlando TRACON
Mon 09:52:15 AM 28.6333 -81.2833 192° South 226 260 4,000 -762 Descending Orlando TRACON
Mon 09:53:21 AM 28.5667 -81.2833 180° South 227 261 2,700 -1,190 Descending Orlando TRACON
Mon 09:54:16 AM 28.5167 -81.2833 180° South 206 237 1,600 -1,096 Descending Orlando TRACON
Mon 09:55:16 AM 28.4667 -81.2833 180° South 153 176 600 -1,000 Descending Orlando TRACON
Mon 09:57:00 AM 28.4294 -81.3090 230° Southwest  Level Estimated
Mon 10:04:00 AM 28.4294 -81.3090 230° Southwest  Level Estimated
Mon 10:05:00 AM 28.4294 -81.3090 230° Southwest  Level Estimated
Mon 10:06:00 AM 28.4294 -81.3090 230° Southwest  Level Estimated
Mon 10:07:00 AM 28.4294 -81.3090 230° Southwest  Level Estimated

Login

Don't have an account? Register now (free) for customized features, flight alerts, and more!